Terminal Aerodrome Forecast
Issued by NWS Boston, MA

Home | Current Version | Previous Version | Text Only | Print | Product List | Glossary On
Versions: 1 2 3 4 5 6 7 8 9 10 11 12 13 14 15 16 17 18 19 20 21 22 23 24 25 26 27 28 29 30 31 32 33 34 35 36 37 38 39 40 41 42 43 44 45 46 47 48 49 50
000
FTUS41 KBOX 300823 AAA
TAFBDL
TAF AMD
KBDL 300823Z 3008/3112 17004KT P6SM SCT250
     FM301400 20008KT P6SM BKN200
     FM301700 20011G21KT P6SM SCT250
     FM302200 20012G22KT P6SM BKN080
     FM310300 20008KT P6SM BKN070
     FM311100 20006KT P6SM -SHRA OVC070=

USA.gov is the U.S. government's official web portal to all federal, state and local government web resources and services.